Time;durP1;ratioP1;P1;durP2;ratioP2;P2;SDS_P1;SDS_P2;PMS_P1;PMS_P2;Temp;Humidity;BMP_temperature;BMP_pressure;BME280_temperature;BME280_humidity;BME280_pressure;Samples;Min_cycle;Max_cycle;Signal;HPM_P1;HPM_P2
2022/08/10 00:01:05;;;;;;;6.60;3.23;;;16.30;99.90;;;;;;5115038;28;20100;-80
2022/08/10 00:03:31;;;;;;;3.87;3.00;;;16.30;99.90;;;;;;5114911;28;20039;-78
2022/08/10 00:05:56;;;;;;;4.00;3.07;;;16.40;99.90;;;;;;5115421;28;20066;-79
2022/08/10 00:08:26;;;;;;;3.83;2.90;;;16.30;99.90;;;;;;5115246;28;20479;-78
2022/08/10 00:10:53;;;;;;;6.53;3.00;;;16.30;99.90;;;;;;5114845;28;20047;-77
2022/08/10 00:13:19;;;;;;;3.60;2.90;;;16.20;99.90;;;;;;5114793;28;20083;-77
2022/08/10 00:15:45;;;;;;;4.60;3.13;;;16.20;99.90;;;;;;5115190;28;20040;-79
2022/08/10 00:18:10;;;;;;;3.30;3.00;;;16.20;99.90;;;;;;5114760;28;20040;-76
2022/08/10 00:20:36;;;;;;;4.97;3.40;;;16.10;99.90;;;;;;5114685;28;20043;-77
2022/08/10 00:23:01;;;;;;;5.10;3.40;;;16.30;99.90;;;;;;5114765;28;20119;-78
2022/08/10 00:25:27;;;;;;;5.00;3.83;;;16.10;99.90;;;;;;5114751;28;20073;-79
2022/08/10 00:27:53;;;;;;;5.17;3.77;;;16.10;99.90;;;;;;5114595;28;20046;-78
2022/08/10 00:30:18;;;;;;;4.50;3.63;;;16.00;99.90;;;;;;5113385;28;20077;-77
2022/08/10 00:32:44;;;;;;;4.00;3.20;;;16.10;99.90;;;;;;5114364;28;20035;-76
2022/08/10 00:35:09;;;;;;;4.50;3.07;;;16.10;99.90;;;;;;5114409;28;20066;-78
2022/08/10 00:37:35;;;;;;;5.63;3.80;;;16.10;99.90;;;;;;5114414;28;20045;-76
2022/08/10 00:40:01;;;;;;;4.73;4.13;;;16.10;99.90;;;;;;5114349;28;20073;-77
2022/08/10 00:42:27;;;;;;;3.83;3.43;;;16.10;99.90;;;;;;5114439;28;20213;-79
2022/08/10 00:44:52;;;;;;;4.07;3.67;;;16.10;99.90;;;;;;5114304;28;20422;-78
2022/08/10 00:47:18;;;;;;;6.40;3.63;;;16.10;99.90;;;;;;5114236;28;20472;-78
2022/08/10 00:49:45;;;;;;;4.37;3.97;;;16.00;99.90;;;;;;5113999;28;20552;-77
2022/08/10 00:52:15;;;;;;;4.97;3.83;;;16.00;99.90;;;;;;5114131;28;20054;-79
2022/08/10 00:54:42;;;;;;;4.72;3.95;;;16.00;99.90;;;;;;5114186;28;20039;-80
2022/08/10 00:57:09;;;;;;;5.10;3.97;;;16.00;99.90;;;;;;5113255;28;20407;-77
2022/08/10 00:59:35;;;;;;;;;;;16.00;99.90;;;;;;5113596;28;20047;-77
2022/08/10 01:02:00;;;;;;;4.78;4.13;;;15.90;99.90;;;;;;5113928;28;20359;-79
2022/08/10 01:04:26;;;;;;;7.03;4.57;;;15.90;99.90;;;;;;5114043;28;20410;-79
2022/08/10 01:07:15;;;;;;;6.05;4.40;;;15.90;99.90;;;;;;5114013;28;20483;-77
2022/08/10 01:10:38;;;;;;;5.60;3.67;;;15.80;99.90;;;;;;5114224;28;20050;-77
2022/08/10 01:13:12;;;;;;;6.85;4.55;;;15.80;99.90;;;;;;5030960;28;20048;-77
2022/08/10 01:15:38;;;;;;;4.93;4.30;;;15.80;99.90;;;;;;5031352;28;20148;-77
2022/08/10 01:18:21;;;;;;;5.53;4.90;;;15.80;99.90;;;;;;5074018;28;20051;-76
2022/08/10 01:20:56;;;;;;;6.63;4.70;;;15.80;99.90;;;;;;5113847;28;20051;-77
2022/08/10 01:23:40;;;;;;;5.32;4.55;;;15.70;99.90;;;;;;5113802;28;20031;-77
2022/08/10 01:26:38;;;;;;;5.93;4.38;;;15.80;99.90;;;;;;5113742;28;20572;-76
2022/08/10 01:29:13;;;;;;;5.55;4.53;;;15.70;99.90;;;;;;5113830;28;20044;-78
2022/08/10 01:31:44;;;;;;;6.45;5.13;;;15.70;99.90;;;;;;5113730;28;20048;-77
2022/08/10 01:34:16;;;;;;;6.15;5.13;;;15.70;99.90;;;;;;5113731;28;20476;-78
2022/08/10 01:36:48;;;;;;;8.48;5.20;;;15.70;99.90;;;;;;5113842;28;20480;-78
2022/08/10 01:39:35;;;;;;;5.70;5.05;;;15.70;99.90;;;;;;5113662;28;20063;-77
2022/08/10 01:42:03;;;;;;;7.13;5.43;;;15.70;99.90;;;;;;5114607;28;20412;-77
2022/08/10 01:44:39;;;;;;;6.88;5.93;;;15.70;99.90;;;;;;5113625;28;20048;-79
2022/08/10 01:50:06;;;;;;;8.20;6.72;;;15.60;99.90;;;;;;5113285;28;20052;-78
2022/08/10 01:52:35;;;;;;;6.80;5.50;;;15.60;99.90;;;;;;5113460;28;20109;-78
2022/08/10 01:55:01;;;;;;;7.38;6.53;;;15.60;99.90;;;;;;5113550;28;20434;-78
2022/08/10 01:57:30;;;;;;;8.43;7.13;;;15.60;99.90;;;;;;5113589;28;20047;-77
2022/08/10 01:59:57;;;;;;;7.13;6.03;;;15.60;99.90;;;;;;5113324;28;20543;-78
2022/08/10 02:02:25;;;;;;;8.18;6.63;;;15.60;99.90;;;;;;5113409;28;20131;-78
2022/08/10 02:04:53;;;;;;;6.43;5.53;;;15.60;99.90;;;;;;5113362;28;20051;-77
2022/08/10 02:07:22;;;;;;;8.45;7.03;;;15.60;99.90;;;;;;5113346;28;20043;-77
2022/08/10 02:09:52;;;;;;;6.95;6.25;;;15.50;99.90;;;;;;5116569;28;20486;-77
2022/08/10 02:12:25;;;;;;;7.18;6.38;;;15.50;99.90;;;;;;5117382;28;20056;-79
2022/08/10 02:15:00;;;;;;;8.13;6.90;;;15.70;99.90;;;;;;5117312;28;20383;-76
2022/08/10 02:17:35;;;;;;;9.15;7.75;;;15.50;99.90;;;;;;5117674;28;20085;-77
2022/08/10 02:20:05;;;;;;;7.90;7.10;;;15.50;99.90;;;;;;5117155;27;20035;-77
2022/08/10 02:22:32;;;;;;;8.07;7.28;;;15.40;99.90;;;;;;5117321;28;20066;-76
2022/08/10 02:24:59;;;;;;;;;;;15.40;99.90;;;;;;5117473;28;20085;-77
2022/08/10 02:27:26;;;;;;;7.72;6.88;;;15.40;99.90;;;;;;5116929;27;20314;-77
2022/08/10 02:29:53;;;;;;;8.45;7.38;;;15.40;99.90;;;;;;5116872;28;20394;-80
2022/08/10 02:32:22;;;;;;;9.27;7.10;;;15.30;99.90;;;;;;5116867;28;20047;-78
2022/08/10 02:34:49;;;;;;;8.52;7.03;;;15.30;99.90;;;;;;5116763;28;20058;-80
2022/08/10 02:37:15;;;;;;;;;;;15.40;99.90;;;;;;5116257;28;20455;-79
2022/08/10 02:39:41;;;;;;;9.77;7.38;;;15.30;99.90;;;;;;5115668;28;19920;-79
2022/08/10 02:42:18;;;;;;;8.57;7.67;;;15.30;99.90;;;;;;5115324;28;20047;-78
2022/08/10 02:45:00;;;;;;;9.40;8.10;;;15.30;99.90;;;;;;5116655;28;20040;-79
2022/08/10 02:47:46;;;;;;;10.55;7.03;;;15.20;99.90;;;;;;5116587;28;20047;-78
2022/08/10 02:50:40;;;;;;;11.05;8.77;;;15.30;99.90;;;;;;5116712;28;20043;-79
2022/08/10 02:53:08;;;;;;;10.13;7.80;;;15.20;99.90;;;;;;5114388;28;20105;-77
2022/08/10 02:55:49;;;;;;;9.50;7.68;;;15.20;99.90;;;;;;5115607;28;20048;-78
2022/08/10 02:58:25;;;;;;;11.25;8.65;;;15.20;99.90;;;;;;5116379;28;20043;-80
2022/08/10 03:00:55;;;;;;;9.40;8.07;;;15.20;99.90;;;;;;5115913;28;20066;-80
2022/08/10 03:03:31;;;;;;;9.73;7.72;;;15.30;99.90;;;;;;5116137;28;20047;-77
2022/08/10 03:06:09;;;;;;;12.10;8.90;;;15.10;99.90;;;;;;5116361;28;20052;-78
2022/08/10 03:08:40;;;;;;;10.55;8.38;;;15.10;99.90;;;;;;5116477;27;20039;-78
2022/08/10 03:11:12;;;;;;;9.88;8.88;;;15.10;99.90;;;;;;5116197;28;20487;-79
2022/08/10 03:13:38;;;;;;;9.20;7.95;;;15.10;99.90;;;;;;5115995;28;20039;-78
2022/08/10 03:16:05;;;;;;;10.23;8.83;;;15.10;99.90;;;;;;5116072;28;20042;-79
2022/08/10 03:18:33;;;;;;;10.50;8.68;;;15.10;99.90;;;;;;5115916;28;20043;-77
2022/08/10 03:20:59;;;;;;;9.65;8.63;;;15.00;99.90;;;;;;5114974;28;20083;-77
2022/08/10 03:23:26;;;;;;;10.52;9.43;;;15.00;99.90;;;;;;5116119;28;20039;-78
2022/08/10 03:25:55;;;;;;;9.48;8.25;;;15.00;99.90;;;;;;5115802;28;20103;-79
2022/08/10 03:28:23;;;;;;;10.55;9.32;;;15.00;99.90;;;;;;5115634;28;20035;-80
2022/08/10 03:30:49;;;;;;;10.60;8.70;;;14.90;99.90;;;;;;5115680;28;20126;-79
2022/08/10 03:33:16;;;;;;;10.25;9.25;;;15.00;99.90;;;;;;5115532;28;20040;-78
2022/08/10 03:35:42;;;;;;;13.25;9.07;;;14.90;99.90;;;;;;5115740;28;20403;-79
2022/08/10 03:38:08;;;;;;;10.50;9.10;;;14.90;99.90;;;;;;5115538;28;20039;-78
2022/08/10 03:40:35;;;;;;;10.00;8.97;;;14.90;99.90;;;;;;5115044;28;20138;-79
2022/08/10 03:43:02;;;;;;;9.65;8.65;;;14.90;99.90;;;;;;5115475;28;20140;-77
2022/08/10 03:45:31;;;;;;;10.63;9.15;;;14.80;99.90;;;;;;5115843;28;20142;-78
2022/08/10 03:47:58;;;;;;;11.02;9.40;;;14.80;99.90;;;;;;5115439;28;20047;-78
2022/08/10 03:50:26;;;;;;;10.90;9.75;;;14.80;99.90;;;;;;5115249;28;20134;-78
2022/08/10 03:52:54;;;;;;;10.20;8.68;;;14.80;99.90;;;;;;5114938;28;20476;-78
2022/08/10 03:55:20;;;;;;;11.25;8.85;;;14.80;99.90;;;;;;5115263;28;20065;-78
2022/08/10 03:57:47;;;;;;;9.63;8.32;;;14.80;99.90;;;;;;5115177;28;20058;-77
2022/08/10 04:00:17;;;;;;;11.43;8.63;;;14.80;99.90;;;;;;5113888;28;20040;-78
2022/08/10 04:02:44;;;;;;;10.00;8.73;;;14.80;99.90;;;;;;5115100;28;20048;-78
2022/08/10 04:05:10;;;;;;;9.90;8.50;;;14.80;99.90;;;;;;5115124;28;20039;-78
2022/08/10 04:07:36;;;;;;;11.83;9.77;;;15.00;99.90;;;;;;5115069;28;20062;-78
2022/08/10 04:10:01;;;;;;;9.87;8.87;;;14.80;99.90;;;;;;5114917;28;20044;-79
2022/08/10 04:12:27;;;;;;;10.10;9.00;;;14.70;99.90;;;;;;5113710;28;20040;-78
2022/08/10 04:14:53;;;;;;;10.15;8.95;;;14.70;99.90;;;;;;5114856;28;20129;-78
2022/08/10 04:17:21;;;;;;;11.75;10.18;;;14.70;99.90;;;;;;5114691;28;20122;-78
2022/08/10 04:19:48;;;;;;;10.35;9.20;;;14.90;99.90;;;;;;5114790;28;20047;-80
2022/08/10 04:22:17;;;;;;;10.85;8.90;;;14.90;99.90;;;;;;5114724;28;20040;-80
2022/08/10 04:24:46;;;;;;;10.30;8.85;;;14.70;99.90;;;;;;5114601;28;20472;-78
2022/08/10 04:27:12;;;;;;;11.15;9.65;;;14.70;99.90;;;;;;5114554;28;20399;-77
2022/08/10 04:29:38;;;;;;;11.77;9.07;;;14.60;99.90;;;;;;5114615;28;20123;-77
2022/08/10 04:32:06;;;;;;;11.33;10.10;;;14.70;99.90;;;;;;5114745;28;20480;-77
2022/08/10 04:34:34;;;;;;;11.20;10.00;;;14.60;99.90;;;;;;5114433;28;20047;-77
2022/08/10 04:37:03;;;;;;;10.07;9.05;;;14.60;99.90;;;;;;5114466;28;20047;-78
2022/08/10 04:39:29;;;;;;;10.98;9.70;;;14.60;99.90;;;;;;5114508;28;20126;-76
2022/08/10 04:41:56;;;;;;;11.10;9.90;;;14.60;99.90;;;;;;5114037;27;20059;-79
2022/08/10 04:44:22;;;;;;;12.23;9.63;;;14.60;99.90;;;;;;5114323;27;20040;-80
2022/08/10 04:46:48;;;;;;;;;;;14.60;99.90;;;;;;5114703;28;20040;-77
2022/08/10 04:49:14;;;;;;;10.95;8.73;;;14.60;99.90;;;;;;5114227;28;19920;-77
2022/08/10 04:51:39;;;;;;;12.38;9.90;;;14.60;99.90;;;;;;5114259;28;20040;-77
2022/08/10 04:54:05;;;;;;;14.75;10.80;;;14.60;99.90;;;;;;5114031;28;20044;-78
2022/08/10 04:56:30;;;;;;;11.23;10.03;;;14.60;99.90;;;;;;5114149;28;20139;-78
2022/08/10 04:58:56;;;;;;;10.90;9.80;;;14.70;99.90;;;;;;5114152;27;20456;-77
2022/08/10 05:01:22;;;;;;;12.45;10.48;;;14.50;99.90;;;;;;5112794;28;20089;-76
2022/08/10 05:03:47;;;;;;;31.45;11.02;;;14.50;99.90;;;;;;5114039;28;20138;-76
2022/08/10 05:06:13;;;;;;;10.63;9.10;;;14.60;99.90;;;;;;5113818;28;20050;-77
2022/08/10 05:08:39;;;;;;;12.67;10.33;;;14.70;99.90;;;;;;5113947;28;20052;-77
2022/08/10 05:11:04;;;;;;;12.85;10.43;;;14.60;99.90;;;;;;5113964;28;20036;-77
2022/08/10 05:13:30;;;;;;;11.93;10.60;;;14.60;99.90;;;;;;5113828;28;20044;-77
2022/08/10 05:15:55;;;;;;;12.33;9.67;;;14.60;99.90;;;;;;5113899;28;20125;-79
2022/08/10 05:18:21;;;;;;;10.93;9.83;;;14.60;99.90;;;;;;5113324;28;20047;-77
2022/08/10 05:20:47;;;;;;;13.10;10.20;;;14.70;99.90;;;;;;5113995;28;20042;-78
2022/08/10 05:23:12;;;;;;;11.33;9.97;;;14.60;99.90;;;;;;5113825;28;20517;-78
2022/08/10 05:25:38;;;;;;;11.00;9.27;;;14.70;99.90;;;;;;5114276;28;20079;-77
2022/08/10 05:28:03;;;;;;;11.48;9.35;;;14.80;99.90;;;;;;5113408;28;20046;-78
2022/08/10 05:30:29;;;;;;;11.03;9.93;;;14.80;99.90;;;;;;5114088;28;20043;-78
2022/08/10 05:32:55;;;;;;;11.45;9.05;;;14.80;99.90;;;;;;5113644;28;20086;-78
2022/08/10 05:35:21;;;;;;;10.88;9.13;;;14.90;99.90;;;;;;5113967;28;20443;-80
2022/08/10 05:37:49;;;;;;;11.43;8.63;;;15.00;99.90;;;;;;5113635;28;20482;-77
2022/08/10 05:40:15;;;;;;;11.20;8.90;;;15.00;99.90;;;;;;5113522;28;20422;-79
2022/08/10 05:42:40;;;;;;;11.20;8.73;;;15.10;99.90;;;;;;5113957;28;20048;-78
2022/08/10 05:45:14;;;;;;;9.77;8.60;;;15.10;99.90;;;;;;5117566;28;20039;-80
2022/08/10 05:47:40;;;;;;;11.02;8.93;;;15.20;99.90;;;;;;5117823;28;20048;-78
2022/08/10 05:50:06;;;;;;;10.33;9.23;;;15.30;99.90;;;;;;5117744;28;20126;-77
2022/08/10 05:52:31;;;;;;;9.57;7.93;;;15.30;99.90;;;;;;5117633;28;20445;-78
2022/08/10 05:54:57;;;;;;;9.37;8.50;;;15.40;99.90;;;;;;5118003;28;20040;-79
2022/08/10 05:57:23;;;;;;;10.47;7.97;;;15.50;99.90;;;;;;5116388;28;20055;-78
2022/08/10 05:59:57;;;;;;;10.97;8.00;;;15.50;99.90;;;;;;5117564;28;20088;-79
2022/08/10 06:02:29;;;;;;;8.25;7.43;;;15.60;99.90;;;;;;5117469;28;20177;-77
2022/08/10 06:04:57;;;;;;;11.23;8.35;;;15.60;99.90;;;;;;5117492;28;20036;-81
2022/08/10 06:07:26;;;;;;;9.95;8.00;;;15.80;99.90;;;;;;5117444;28;20051;-80
2022/08/10 06:09:54;;;;;;;11.23;7.82;;;15.80;99.90;;;;;;5116974;28;20047;-77
2022/08/10 06:12:22;;;;;;;11.75;8.07;;;15.80;99.90;;;;;;5117416;28;20040;-79
2022/08/10 06:15:01;;;;;;;10.25;7.82;;;15.90;99.90;;;;;;5117298;28;20050;-78
2022/08/10 06:17:30;;;;;;;9.63;7.53;;;16.00;99.90;;;;;;5116997;28;20093;-77
2022/08/10 06:20:00;;;;;;;9.20;7.63;;;16.10;99.90;;;;;;5117146;28;20136;-79
2022/08/10 06:22:27;;;;;;;8.10;7.30;;;16.20;99.90;;;;;;5117210;28;20055;-77
2022/08/10 06:24:56;;;;;;;8.32;7.53;;;16.40;99.90;;;;;;5116453;28;20047;-77
2022/08/10 06:27:22;;;;;;;8.02;7.22;;;16.50;99.90;;;;;;5116170;28;20039;-81
2022/08/10 06:29:49;;;;;;;9.63;7.33;;;16.70;99.90;;;;;;5116898;28;20177;-79
2022/08/10 06:32:16;;;;;;;7.07;6.25;;;16.90;99.90;;;;;;5116955;27;20044;-78
2022/08/10 06:34:46;;;;;;;8.77;6.63;;;17.00;99.90;;;;;;5117184;28;20085;-82
2022/08/10 06:37:15;;;;;;;9.20;6.22;;;17.10;99.90;;;;;;5099309;28;20047;-79
2022/08/10 06:39:42;;;;;;;7.10;6.32;;;17.30;99.90;;;;;;5116868;28;20043;-81
2022/08/10 06:42:18;;;;;;;9.15;6.47;;;17.30;99.90;;;;;;5115248;28;20416;-79
2022/08/10 06:45:19;;;;;;;7.97;6.30;;;17.60;99.90;;;;;;5116753;28;20039;-76
2022/08/10 06:47:48;;;;;;;6.68;5.97;;;17.70;99.90;;;;;;5073366;28;20395;-78
2022/08/10 06:50:24;;;;;;;8.93;6.03;;;18.00;99.90;;;;;;5116634;28;20395;-78
2022/08/10 06:52:51;;;;;;;7.82;5.85;;;18.00;99.90;;;;;;5116426;28;20044;-76
2022/08/10 06:55:19;;;;;;;8.07;5.90;;;18.20;99.90;;;;;;5115008;28;20084;-78
2022/08/10 06:57:47;;;;;;;6.47;5.45;;;18.40;99.90;;;;;;5116466;28;20059;-78
2022/08/10 07:00:13;;;;;;;6.28;4.68;;;18.50;99.90;;;;;;5116445;27;20118;-77
2022/08/10 07:03:03;;;;;;;6.00;5.07;;;18.60;99.90;;;;;;5116323;27;20051;-79
2022/08/10 07:05:30;;;;;;;7.05;5.05;;;18.80;99.90;;;;;;5115685;28;20135;-78
2022/08/10 07:07:59;;;;;;;6.85;5.38;;;18.90;99.90;;;;;;5114881;28;20047;-78
2022/08/10 07:10:26;;;;;;;10.30;5.40;;;19.00;99.90;;;;;;5115895;28;20476;-80
2022/08/10 07:12:56;;;;;;;5.18;4.68;;;19.20;99.90;;;;;;5098091;28;20044;-79
2022/08/10 07:15:23;;;;;;;6.85;5.25;;;19.30;99.90;;;;;;5116257;28;20054;-79
2022/08/10 07:17:51;;;;;;;8.05;4.97;;;19.40;99.90;;;;;;5114863;28;20047;-81
2022/08/10 07:20:18;;;;;;;6.30;4.93;;;19.50;99.90;;;;;;5115911;28;20235;-80
2022/08/10 07:22:50;;;;;;;6.07;5.25;;;19.60;99.90;;;;;;5114875;28;20051;-80
2022/08/10 07:25:24;;;;;;;5.70;4.50;;;19.70;99.90;;;;;;5115845;28;20048;-79
2022/08/10 07:27:50;;;;;;;5.88;4.40;;;19.80;99.90;;;;;;5114805;28;20069;-80
2022/08/10 07:30:16;;;;;;;6.10;4.72;;;19.90;99.90;;;;;;5115793;28;20047;-82
2022/08/10 07:32:43;;;;;;;6.10;5.20;;;20.00;99.90;;;;;;5115671;28;20039;-81
2022/08/10 07:35:12;;;;;;;7.97;5.15;;;20.10;99.90;;;;;;5115543;28;20040;-81
2022/08/10 07:37:40;;;;;;;8.88;4.72;;;20.20;99.90;;;;;;5115525;28;20058;-79
2022/08/10 07:40:07;;;;;;;5.60;4.93;;;20.20;99.90;;;;;;5115175;28;20047;-79
2022/08/10 07:42:35;;;;;;;6.10;4.43;;;20.30;99.90;;;;;;5115500;28;20048;-79
2022/08/10 07:45:02;;;;;;;12.02;8.32;;;20.40;99.90;;;;;;5115603;28;20452;-82
2022/08/10 07:47:36;;;;;;;7.32;4.50;;;20.50;99.90;;;;;;5115359;28;20491;-82
2022/08/10 07:50:07;;;;;;;6.38;5.10;;;20.60;99.90;;;;;;5115334;28;20126;-83
2022/08/10 07:52:36;;;;;;;6.07;4.50;;;20.70;99.90;;;;;;5114116;28;20093;-83
2022/08/10 07:55:03;;;;;;;10.00;6.43;;;20.80;99.90;;;;;;5114541;28;20055;-81
2022/08/10 07:57:31;;;;;;;6.50;4.78;;;20.90;99.90;;;;;;5114597;28;20450;-82
2022/08/10 08:00:01;;;;;;;7.85;4.40;;;21.00;99.90;;;;;;5114182;28;20054;-82
2022/08/10 08:02:43;;;;;;;6.85;4.15;;;21.20;99.90;;;;;;5114465;28;20475;-83
2022/08/10 08:05:12;;;;;;;6.82;4.55;;;21.30;99.90;;;;;;5115711;28;20032;-82
2022/08/10 08:07:39;;;;;;;6.63;4.05;;;21.30;99.90;;;;;;5114987;28;20173;-81
2022/08/10 08:10:07;;;;;;;6.25;4.35;;;21.40;99.90;;;;;;5115079;28;20051;-82
2022/08/10 08:12:34;;;;;;;4.80;3.63;;;21.50;99.90;;;;;;5115491;28;20043;-82
2022/08/10 08:15:02;;;;;;;5.82;4.20;;;21.50;99.90;;;;;;5115129;28;20032;-78
2022/08/10 08:17:30;;;;;;;5.40;2.80;;;21.50;99.90;;;;;;5115269;28;20044;-82
2022/08/10 08:19:58;;;;;;;5.47;3.40;;;21.50;99.90;;;;;;5114993;28;20090;-82
2022/08/10 08:22:25;;;;;;;5.90;3.53;;;21.60;99.90;;;;;;5113931;28;20097;-81
2022/08/10 08:24:51;;;;;;;4.70;2.97;;;21.70;99.90;;;;;;5114101;28;20126;-82
2022/08/10 08:27:19;;;;;;;6.88;3.67;;;21.90;99.90;;;;;;5115059;28;20043;-80
2022/08/10 08:29:47;;;;;;;4.35;3.40;;;22.00;99.90;;;;;;5114922;28;20043;-82
2022/08/10 08:32:21;;;;;;;5.80;2.80;;;22.10;99.90;;;;;;5113850;28;20372;-82
2022/08/10 08:34:52;;;;;;;4.18;2.63;;;22.20;99.90;;;;;;5113907;28;20135;-82
2022/08/10 08:37:19;;;;;;;7.40;3.03;;;22.30;99.90;;;;;;5114970;28;20100;-82
2022/08/10 08:39:45;;;;;;;5.43;2.97;;;22.40;99.90;;;;;;5114741;28;20055;-83
2022/08/10 08:42:20;;;;;;;3.47;2.70;;;22.60;99.90;;;;;;5114246;28;20047;-81
2022/08/10 08:45:04;;;;;;;4.05;2.63;;;22.60;99.90;;;;;;5114706;28;20043;-82
2022/08/10 08:48:00;;;;;;;4.30;2.42;;;22.70;99.90;;;;;;5114328;28;20126;-82
2022/08/10 08:50:35;;;;;;;4.30;2.60;;;22.80;99.90;;;;;;5113344;28;20044;-81
2022/08/10 08:53:30;;;;;;;3.13;2.53;;;23.00;99.90;;;;;;5113330;28;20048;-81
2022/08/10 08:56:13;;;;;;;6.60;2.80;;;23.10;99.90;;;;;;5114513;28;20372;-81
2022/08/10 08:58:54;;;;;;;4.70;2.78;;;23.30;99.90;;;;;;5114432;28;20091;-82
2022/08/10 09:01:51;;;;;;;4.93;3.13;;;23.30;99.90;;;;;;5096627;28;20066;-81
2022/08/10 09:04:27;;;;;;;6.43;3.22;;;23.40;99.90;;;;;;5114533;28;20039;-81
2022/08/10 09:07:11;;;;;;;6.57;3.47;;;23.50;99.90;;;;;;5114360;28;20048;-81
2022/08/10 09:10:03;;;;;;;4.28;3.20;;;23.50;99.90;;;;;;5113237;28;20846;-81
2022/08/10 09:12:56;;;;;;;5.63;3.22;;;23.50;99.90;;;;;;5113944;28;20157;-81
2022/08/10 09:16:00;;;;;;;6.03;3.10;;;23.70;99.90;;;;;;5114068;28;20051;-81
2022/08/10 09:18:55;;;;;;;4.90;3.35;;;23.80;99.90;;;;;;5113702;28;20048;-80
2022/08/10 09:21:40;;;;;;;4.40;3.30;;;24.00;99.90;;;;;;5113878;28;20044;-81
2022/08/10 09:24:24;;;;;;;5.50;3.35;;;24.10;99.90;;;;;;5114367;28;20071;-80
2022/08/10 09:26:52;;;;;;;5.47;3.00;;;24.20;99.90;;;;;;5112856;28;20503;-79
2022/08/10 09:29:52;;;;;;;5.45;2.83;;;24.30;99.90;;;;;;5113935;28;20426;-86
2022/08/10 09:32:40;;;;;;;4.90;2.85;;;24.50;99.90;;;;;;5112574;28;20092;-81
2022/08/10 09:35:28;;;;;;;6.63;2.88;;;24.60;99.90;;;;;;5114159;28;20384;-80
2022/08/10 09:38:06;;;;;;;;;;;24.80;99.90;;;;;;5113028;28;20048;-81
2022/08/10 09:40:57;;;;;;;4.03;2.30;;;25.00;99.90;;;;;;5113469;28;19998;-83
2022/08/10 09:43:41;;;;;;;4.82;2.33;;;25.10;99.90;;;;;;5112292;28;20048;-82
2022/08/10 09:46:44;;;;;;;3.42;2.30;;;25.10;99.90;;;;;;5106307;28;20048;-81
2022/08/10 09:49:31;;;;;;;4.65;2.60;;;25.20;99.90;;;;;;5093082;28;20052;-82
2022/08/10 09:52:05;;;;;;;4.82;2.17;;;25.20;99.90;;;;;;5091733;28;20101;-80
2022/08/10 09:54:37;;;;;;;3.72;1.85;;;25.30;99.90;;;;;;5091666;28;20050;-80
2022/08/10 09:57:27;;;;;;;6.68;2.40;;;25.40;99.90;;;;;;5092890;28;20083;-79
2022/08/10 10:00:14;;;;;;;4.25;1.60;;;25.50;99.90;;;;;;5091759;28;20079;-80
2022/08/10 10:03:02;;;;;;;5.88;1.90;;;25.60;99.90;;;;;;5102593;28;20044;-84
2022/08/10 10:05:45;;;;;;;3.53;1.80;;;25.80;99.90;;;;;;5113436;28;20047;-78
2022/08/10 10:08:50;;;;;;;3.88;1.55;;;26.00;99.90;;;;;;5113203;28;20051;-81
2022/08/10 10:12:05;;;;;;;5.75;1.60;;;26.00;99.40;;;;;;5113400;28;20425;-79
2022/08/10 10:15:31;;;;;;;3.95;1.60;;;26.20;98.60;;;;;;5112760;28;20048;-81
2022/08/10 10:17:47;;;;;;;3.00;1.40;;;26.30;98.50;;;;;;5104716;28;20138;-78
2022/08/10 10:20:43;;;;;;;5.40;1.58;;;26.40;98.50;;;;;;5113310;28;20043;-78
2022/08/10 10:23:15;;;;;;;5.00;1.55;;;26.40;97.80;;;;;;5113250;28;20050;-79
2022/08/10 10:25:53;;;;;;;3.88;1.48;;;26.40;96.60;;;;;;5113159;28;20047;-78
2022/08/10 10:28:41;;;;;;;3.42;1.20;;;26.40;96.00;;;;;;5113032;28;20160;-78
2022/08/10 10:31:37;;;;;;;2.17;1.33;;;26.50;95.40;;;;;;5116919;28;20052;-83
2022/08/10 10:34:26;;;;;;;2.05;1.10;;;26.60;95.50;;;;;;5117109;28;20043;-87
2022/08/10 10:36:53;;;;;;;2.67;1.13;;;26.70;94.10;;;;;;5098741;28;20048;-86
2022/08/10 10:39:23;;;;;;;1.38;0.90;;;26.90;94.60;;;;;;5098844;28;20039;-84
2022/08/10 10:42:15;;;;;;;3.97;1.30;;;27.00;94.60;;;;;;5115580;28;20054;-87
2022/08/10 10:45:25;;;;;;;2.95;1.42;;;27.10;94.50;;;;;;5105675;28;20055;-83
2022/08/10 10:48:00;;;;;;;5.32;1.10;;;27.10;93.60;;;;;;5082827;28;20488;-84
2022/08/10 10:50:52;;;;;;;2.70;1.55;;;27.10;93.80;;;;;;5116811;28;20043;-80
2022/08/10 10:53:30;;;;;;;5.13;1.52;;;27.10;93.90;;;;;;5098544;28;20043;-84
2022/08/10 10:56:01;;;;;;;2.85;1.55;;;27.20;94.40;;;;;;5116247;28;20456;-80
2022/08/10 10:58:35;;;;;;;4.43;1.42;;;27.20;94.20;;;;;;5115651;28;20079;-91
2022/08/10 11:01:13;;;;;;;2.60;1.52;;;27.30;94.40;;;;;;5115139;28;20122;-83
2022/08/10 11:04:08;;;;;;;5.85;1.52;;;27.30;94.20;;;;;;5116794;27;20429;-78
2022/08/10 11:07:01;;;;;;;3.60;1.00;;;27.40;94.30;;;;;;5102533;28;20055;-84
2022/08/10 11:09:40;;;;;;;2.88;1.15;;;27.50;93.40;;;;;;5115897;28;20433;-81
2022/08/10 11:12:32;;;;;;;4.18;1.20;;;27.70;92.90;;;;;;5114966;28;20118;-79
2022/08/10 11:15:22;;;;;;;2.70;1.10;;;27.80;92.50;;;;;;5115195;28;20078;-87
2022/08/10 11:18:02;;;;;;;3.45;1.20;;;27.80;92.50;;;;;;5114952;28;20039;-84
2022/08/10 11:20:35;;;;;;;2.20;1.00;;;27.90;92.90;;;;;;5115106;28;20039;-80
2022/08/10 11:23:17;;;;;;;3.33;1.00;;;28.10;92.40;;;;;;5114711;28;20047;-77
2022/08/10 11:26:00;;;;;;;1.95;1.02;;;28.20;91.60;;;;;;5098187;28;20043;-81
2022/08/10 11:28:45;;;;;;;3.63;1.00;;;28.20;90.50;;;;;;5114862;28;20055;-82
2022/08/10 11:31:21;;;;;;;3.65;1.33;;;28.30;90.20;;;;;;5115738;28;20124;-85
2022/08/10 11:34:01;;;;;;;3.33;0.98;;;28.30;90.10;;;;;;5114584;28;20043;-86
2022/08/10 11:36:41;;;;;;;2.90;1.00;;;28.30;90.60;;;;;;5115814;28;20048;-82
2022/08/10 11:39:25;;;;;;;3.65;1.17;;;28.40;90.10;;;;;;5115671;28;20051;-82
2022/08/10 11:41:55;;;;;;;2.55;0.93;;;28.50;87.90;;;;;;5113532;28;20483;-81
2022/08/10 11:44:38;;;;;;;2.00;1.17;;;28.50;89.10;;;;;;5112359;28;20437;-82
2022/08/10 11:47:09;;;;;;;2.97;1.17;;;28.60;88.80;;;;;;5114304;28;20480;-83
2022/08/10 11:49:54;;;;;;;1.73;0.90;;;28.60;87.80;;;;;;5115018;28;20560;-82
2022/08/10 11:53:10;;;;;;;3.88;1.10;;;28.60;87.70;;;;;;5114059;28;20043;-82
2022/08/10 11:55:36;;;;;;;3.60;1.10;;;28.70;87.40;;;;;;5088587;28;20051;-80
2022/08/10 12:00:58;;;;;;;2.38;1.15;;;28.80;88.00;;;;;;5114275;28;20048;-83
2022/08/10 12:03:24;;;;;;;2.67;1.00;;;29.00;85.70;;;;;;5114024;28;20055;-79
2022/08/10 12:05:50;;;;;;;;;;;29.00;87.20;;;;;;5115380;28;20069;-80
2022/08/10 12:08:18;;;;;;;2.60;1.00;;;29.10;85.80;;;;;;5114883;28;19919;-79
2022/08/10 12:10:46;;;;;;;4.20;1.15;;;29.10;86.70;;;;;;5114165;28;20039;-84
2022/08/10 12:13:22;;;;;;;2.28;0.98;;;29.10;87.00;;;;;;5114472;28;20130;-83
2022/08/10 12:16:02;;;;;;;3.72;1.10;;;29.20;85.30;;;;;;5096951;28;20434;-82
2022/08/10 12:18:46;;;;;;;2.33;1.30;;;29.30;86.00;;;;;;5113359;28;20134;-81
2022/08/10 12:21:20;;;;;;;4.60;1.25;;;29.50;85.50;;;;;;5113601;28;20043;-82
2022/08/10 12:24:10;;;;;;;2.63;1.10;;;29.40;86.40;;;;;;5114600;27;20086;-82
2022/08/10 12:26:48;;;;;;;5.88;1.23;;;29.50;85.60;;;;;;5096361;28;20047;-86
2022/08/10 12:29:26;;;;;;;3.20;1.10;;;29.50;86.20;;;;;;5114707;28;20527;-86
2022/08/10 12:32:08;;;;;;;2.53;1.08;;;29.50;86.10;;;;;;5113616;28;20561;-85
2022/08/10 12:35:12;;;;;;;6.35;1.38;;;29.60;85.60;;;;;;5114101;28;20043;-81
2022/08/10 12:37:49;;;;;;;2.92;1.20;;;29.60;85.10;;;;;;5084256;28;20054;-80
2022/08/10 12:40:22;;;;;;;5.85;1.13;;;29.70;85.00;;;;;;5114278;28;20119;-79
2022/08/10 12:42:55;;;;;;;2.80;0.90;;;29.70;86.50;;;;;;5112680;28;20356;-80
2022/08/10 12:45:38;;;;;;;3.38;1.00;;;29.70;84.30;;;;;;5114040;28;20040;-80
2022/08/10 12:48:13;;;;;;;2.95;1.23;;;29.80;82.30;;;;;;5112960;28;20044;-82
2022/08/10 12:50:51;;;;;;;3.88;1.20;;;29.80;83.60;;;;;;5112616;28;20055;-81
2022/08/10 12:53:38;;;;;;;1.92;1.00;;;29.70;81.80;;;;;;5112436;28;20138;-85
2022/08/10 12:56:05;;;;;;;2.47;0.82;;;29.70;83.00;;;;;;5113508;28;20043;-85
2022/08/10 12:58:33;;;;;;;2.67;1.20;;;29.70;83.80;;;;;;5112495;28;20119;-91
2022/08/10 13:01:04;;;;;;;2.30;1.00;;;29.80;83.80;;;;;;5112418;28;20093;-83
2022/08/10 13:03:32;;;;;;;4.95;1.02;;;30.00;83.70;;;;;;5112463;28;20043;-81
2022/08/10 13:06:04;;;;;;;3.75;1.23;;;30.00;83.00;;;;;;5113376;28;20075;-83
2022/08/10 13:11:20;;;;;;;3.13;1.40;;;29.80;81.50;;;;;;5112562;28;20051;-81
2022/08/10 13:13:48;;;;;;;4.22;1.10;;;29.90;82.80;;;;;;5095103;28;20134;-82
2022/08/10 13:16:15;;;;;;;3.70;1.20;;;30.00;83.20;;;;;;5112731;28;20093;-81
2022/08/10 13:18:43;;;;;;;2.30;0.93;;;30.00;82.90;;;;;;5112486;28;20083;-81
2022/08/10 13:21:13;;;;;;;3.40;1.05;;;30.10;83.00;;;;;;5112241;28;20040;-80
2022/08/10 13:23:49;;;;;;;2.95;0.90;;;30.20;82.80;;;;;;5113337;28;20490;-82
2022/08/10 13:26:19;;;;;;;2.17;0.85;;;30.10;80.10;;;;;;5112445;28;20399;-80